createdAt,value
2023-01-18T00:01:30.055Z,9.37
2023-01-18T00:03:57.706Z,10.60
2023-01-18T00:06:27.835Z,9.50
2023-01-18T00:08:57.500Z,9.77
2023-01-18T00:11:26.670Z,8.97
2023-01-18T00:13:54.602Z,9.93
2023-01-18T00:16:21.849Z,10.13
2023-01-18T00:18:53.321Z,9.97
2023-01-18T00:21:21.190Z,9.13
2023-01-18T00:23:48.913Z,9.50
2023-01-18T00:26:21.799Z,10.33
2023-01-18T00:28:51.312Z,9.40
2023-01-18T00:31:20.693Z,9.60
2023-01-18T00:33:49.550Z,9.93
2023-01-18T00:36:17.648Z,9.80
2023-01-18T00:38:45.189Z,9.37
2023-01-18T00:41:13.284Z,9.57
2023-01-18T00:43:45.771Z,10.17
2023-01-18T00:46:23.201Z,10.47
2023-01-18T00:48:51.129Z,9.47
2023-01-18T00:51:22.679Z,9.40
2023-01-18T00:53:50.134Z,9.97
2023-01-18T00:56:19.986Z,10.20
2023-01-18T00:58:48.171Z,9.27
2023-01-18T01:01:16.279Z,10.13
2023-01-18T01:04:01.863Z,8.90
2023-01-18T01:06:45.665Z,9.13
2023-01-18T01:09:15.758Z,9.30
2023-01-18T01:12:03.582Z,9.90
2023-01-18T01:14:49.307Z,9.33
2023-01-18T01:17:35.361Z,9.43
2023-01-18T01:20:21.839Z,9.73
2023-01-18T01:23:08.489Z,9.83
2023-01-18T01:25:56.713Z,9.37
2023-01-18T01:28:25.139Z,10.10
2023-01-18T01:30:57.981Z,10.70
2023-01-18T01:33:25.582Z,9.30
2023-01-18T01:36:00.666Z,10.00
2023-01-18T01:38:30.278Z,9.70
2023-01-18T01:41:07.762Z,9.57
2023-01-18T01:43:55.343Z,9.57
2023-01-18T01:46:35.436Z,10.00
2023-01-18T01:49:24.110Z,10.50
2023-01-18T01:51:52.921Z,10.23
2023-01-18T01:54:24.032Z,9.90
2023-01-18T01:56:51.894Z,9.77
2023-01-18T01:59:20.198Z,10.03
2023-01-18T02:01:47.587Z,10.53
2023-01-18T02:04:15.899Z,9.87
2023-01-18T02:06:44.478Z,10.13
2023-01-18T02:09:13.748Z,10.07
2023-01-18T02:11:41.280Z,10.30
2023-01-18T02:14:11.204Z,10.17
2023-01-18T02:17:02.123Z,10.87
2023-01-18T02:19:56.197Z,10.23
2023-01-18T02:22:44.890Z,9.83
2023-01-18T02:25:28.549Z,10.80
2023-01-18T02:28:12.792Z,10.40
2023-01-18T02:31:12.573Z,10.80
2023-01-18T02:33:47.099Z,10.53
2023-01-18T02:36:22.653Z,10.13
2023-01-18T02:38:50.747Z,10.97
2023-01-18T02:42:01.897Z,10.50
2023-01-18T02:44:55.521Z,11.50
2023-01-18T02:47:23.779Z,12.10
2023-01-18T02:49:51.805Z,11.90
2023-01-18T02:52:47.281Z,11.07
2023-01-18T02:55:32.674Z,10.97
2023-01-18T02:58:19.238Z,11.50
2023-01-18T03:01:01.051Z,11.53
2023-01-18T03:03:29.438Z,11.57
2023-01-18T03:05:59.938Z,11.30
2023-01-18T03:08:42.881Z,11.80
2023-01-18T03:11:19.713Z,11.63
2023-01-18T03:14:21.019Z,12.00
2023-01-18T03:17:10.436Z,12.70
2023-01-18T03:20:06.425Z,12.37
2023-01-18T03:23:00.239Z,12.70
2023-01-18T03:25:30.032Z,14.03
2023-01-18T03:28:16.298Z,13.07
2023-01-18T03:31:02.767Z,14.10
2023-01-18T03:33:44.070Z,13.97
2023-01-18T03:36:54.855Z,12.93
2023-01-18T03:39:37.709Z,13.47
2023-01-18T03:42:09.851Z,13.30
2023-01-18T03:44:39.827Z,13.20
2023-01-18T03:47:07.599Z,13.40
2023-01-18T03:49:36.095Z,12.57
2023-01-18T03:52:46.524Z,13.63
2023-01-18T03:55:54.129Z,11.50
2023-01-18T03:58:27.913Z,11.83
2023-01-18T04:00:56.181Z,11.93
2023-01-18T04:03:24.063Z,12.03
2023-01-18T04:05:52.290Z,12.00
2023-01-18T04:08:22.004Z,12.40
2023-01-18T04:10:49.640Z,12.30
2023-01-18T04:13:17.964Z,11.07
2023-01-18T04:15:46.181Z,11.10
2023-01-18T04:18:14.412Z,12.17
2023-01-18T04:20:43.285Z,11.03
2023-01-18T04:23:11.204Z,12.03
2023-01-18T04:25:40.964Z,11.27
2023-01-18T04:28:09.212Z,11.43
2023-01-18T04:30:37.833Z,12.03
2023-01-18T04:33:06.279Z,11.37
2023-01-18T04:35:34.817Z,12.57
2023-01-18T04:38:02.805Z,11.93
2023-01-18T04:40:30.439Z,11.73
2023-01-18T04:42:59.354Z,12.17
2023-01-18T04:45:27.646Z,11.90
2023-01-18T04:47:55.854Z,12.10
2023-01-18T04:50:24.029Z,11.30
2023-01-18T04:52:53.661Z,12.23
2023-01-18T04:55:22.185Z,12.53
2023-01-18T04:57:55.651Z,13.17
2023-01-18T05:00:24.993Z,12.37
2023-01-18T05:02:53.127Z,13.00
2023-01-18T05:05:21.489Z,12.10
2023-01-18T05:07:50.364Z,12.40
2023-01-18T05:10:18.712Z,13.27
2023-01-18T05:12:47.233Z,13.07
2023-01-18T05:15:15.655Z,13.20
2023-01-18T05:17:43.909Z,12.27
2023-01-18T05:20:11.952Z,12.10
2023-01-18T05:22:39.652Z,12.40
2023-01-18T05:25:10.407Z,12.83
2023-01-18T05:27:38.227Z,11.90
2023-01-18T05:30:09.038Z,12.40
2023-01-18T05:32:36.844Z,11.93
2023-01-18T05:35:06.650Z,12.73
2023-01-18T05:37:34.774Z,12.17
2023-01-18T05:40:03.708Z,12.27
2023-01-18T05:42:32.334Z,13.00
2023-01-18T05:45:02.391Z,13.00
2023-01-18T05:47:30.753Z,13.00
2023-01-18T05:50:00.296Z,13.07
2023-01-18T05:52:27.831Z,12.23
2023-01-18T05:54:55.513Z,11.83
2023-01-18T05:57:23.794Z,12.33
2023-01-18T05:59:52.433Z,11.30
2023-01-18T06:02:20.359Z,11.10
2023-01-18T06:04:48.627Z,11.67
2023-01-18T06:07:17.126Z,12.40
2023-01-18T06:09:45.174Z,12.47
2023-01-18T06:12:13.406Z,12.17
2023-01-18T06:14:41.629Z,14.43
2023-01-18T06:17:09.890Z,16.10
2023-01-18T06:19:37.987Z,12.83
2023-01-18T06:22:06.268Z,11.47
2023-01-18T06:24:34.847Z,11.40
2023-01-18T06:27:04.171Z,12.20
2023-01-18T06:29:31.832Z,12.47
2023-01-18T06:31:59.512Z,14.07
2023-01-18T06:34:30.217Z,12.80
2023-01-18T06:36:58.586Z,12.70
2023-01-18T06:39:27.264Z,12.57
2023-01-18T06:41:55.794Z,12.87
2023-01-18T06:44:24.097Z,13.80
2023-01-18T06:46:52.271Z,13.07
2023-01-18T06:49:22.053Z,14.00
2023-01-18T06:51:50.309Z,13.87
2023-01-18T06:54:18.077Z,15.10
2023-01-18T06:56:46.270Z,14.53
2023-01-18T06:59:14.266Z,15.00
2023-01-18T07:01:42.665Z,13.47
2023-01-18T07:04:10.432Z,13.07
2023-01-18T07:06:41.460Z,14.47
2023-01-18T07:09:10.573Z,14.37
2023-01-18T07:11:39.390Z,14.97
2023-01-18T07:14:07.641Z,13.90
2023-01-18T07:16:36.390Z,14.03
2023-01-18T07:19:04.752Z,13.27
2023-01-18T07:21:33.148Z,14.30
2023-01-18T07:24:01.999Z,14.27
2023-01-18T07:26:32.221Z,14.00
2023-01-18T07:29:00.674Z,14.20
2023-01-18T07:31:28.448Z,13.97
2023-01-18T07:33:56.599Z,13.63
2023-01-18T07:36:24.671Z,13.90
2023-01-18T07:38:52.453Z,14.47
2023-01-18T07:41:20.100Z,14.30
2023-01-18T07:43:48.525Z,14.27
2023-01-18T07:46:18.976Z,13.73
2023-01-18T07:48:47.786Z,14.63
2023-01-18T07:51:35.209Z,13.93
2023-01-18T07:54:03.646Z,14.27
2023-01-18T07:56:31.788Z,12.80
2023-01-18T07:58:59.839Z,14.97
2023-01-18T08:01:28.614Z,15.43
2023-01-18T08:03:56.513Z,14.10
2023-01-18T08:06:25.265Z,14.33
2023-01-18T08:08:53.191Z,14.53
2023-01-18T08:11:21.198Z,14.90
2023-01-18T08:13:49.476Z,15.63
2023-01-18T08:16:19.217Z,15.10
2023-01-18T08:18:49.011Z,14.57
2023-01-18T08:21:16.986Z,13.90
2023-01-18T08:23:44.645Z,14.50
2023-01-18T08:26:13.790Z,14.00
2023-01-18T08:28:42.220Z,14.93
2023-01-18T08:31:19.889Z,14.10
2023-01-18T08:33:48.881Z,14.13
2023-01-18T08:36:18.377Z,13.97
2023-01-18T08:38:50.424Z,15.43
2023-01-18T08:41:21.228Z,14.53
2023-01-18T08:43:52.457Z,14.90
2023-01-18T08:46:20.939Z,14.17
2023-01-18T08:48:52.938Z,15.27
2023-01-18T08:51:21.953Z,14.57
2023-01-18T08:53:51.740Z,14.43
2023-01-18T08:56:20.488Z,15.10
2023-01-18T08:58:48.107Z,14.47
2023-01-18T09:01:15.830Z,14.83
2023-01-18T09:03:44.096Z,14.70
2023-01-18T09:06:13.156Z,15.10
2023-01-18T09:08:41.295Z,15.53
2023-01-18T09:11:10.408Z,14.20
2023-01-18T09:13:47.876Z,14.57
2023-01-18T09:16:26.702Z,14.77
2023-01-18T09:18:55.537Z,16.27
2023-01-18T09:21:23.712Z,14.17
2023-01-18T09:23:51.055Z,15.27
2023-01-18T09:26:20.935Z,15.57
2023-01-18T09:28:49.828Z,16.97
2023-01-18T09:31:18.716Z,15.27
2023-01-18T09:33:53.166Z,15.70
2023-01-18T09:36:24.075Z,16.10
2023-01-18T09:38:52.272Z,16.50
2023-01-18T09:41:36.641Z,15.83
2023-01-18T09:44:53.343Z,14.93
2023-01-18T09:47:35.121Z,15.10
2023-01-18T09:50:13.336Z,14.50
2023-01-18T09:53:05.827Z,14.67
2023-01-18T09:55:39.025Z,15.37
2023-01-18T09:58:11.976Z,15.43
2023-01-18T10:00:45.201Z,14.10
2023-01-18T10:03:42.048Z,15.43
2023-01-18T10:06:15.554Z,16.03
2023-01-18T10:09:18.090Z,22.37
2023-01-18T10:12:14.289Z,15.97
2023-01-18T10:15:05.472Z,15.97
2023-01-18T10:17:38.322Z,15.80
2023-01-18T10:21:01.075Z,16.30
2023-01-18T10:23:40.555Z,17.57
2023-01-18T10:26:16.766Z,18.03
2023-01-18T10:28:59.160Z,17.83
2023-01-18T10:31:50.707Z,19.00
2023-01-18T10:34:21.966Z,18.20
2023-01-18T10:36:56.215Z,18.07
2023-01-18T10:39:44.480Z,19.27
2023-01-18T10:42:22.586Z,19.03
2023-01-18T10:44:52.495Z,19.20
2023-01-18T10:47:20.873Z,19.33
2023-01-18T10:49:50.515Z,19.20
2023-01-18T10:52:22.893Z,20.07
2023-01-18T10:54:52.065Z,18.20
2023-01-18T10:57:22.350Z,18.30
2023-01-18T10:59:51.642Z,18.67
2023-01-18T11:02:23.568Z,21.33
2023-01-18T11:05:02.923Z,21.37
2023-01-18T11:07:30.553Z,18.10
2023-01-18T11:10:01.752Z,19.03
2023-01-18T11:12:37.590Z,17.13
2023-01-18T11:15:13.820Z,15.67
2023-01-18T11:17:56.437Z,13.52
2023-01-18T11:20:35.825Z,14.07
2023-01-18T11:23:06.979Z,14.23
2023-01-18T11:25:53.311Z,13.40
2023-01-18T11:28:29.397Z,13.63
2023-01-18T11:31:15.876Z,14.17
2023-01-18T11:33:54.353Z,14.70
2023-01-18T11:36:33.062Z,14.87
2023-01-18T11:39:35.294Z,14.73
2023-01-18T11:42:26.502Z,14.97
2023-01-18T11:44:58.703Z,17.60
2023-01-18T11:47:34.426Z,15.93
2023-01-18T11:50:21.997Z,15.07
2023-01-18T11:53:04.992Z,13.83
2023-01-18T11:56:06.712Z,14.23
2023-01-18T11:58:34.659Z,13.47
2023-01-18T12:01:53.217Z,14.97
2023-01-18T12:04:40.033Z,14.25
2023-01-18T12:07:27.655Z,14.50
2023-01-18T12:12:52.853Z,13.17
2023-01-18T12:15:52.168Z,14.40
2023-01-18T12:18:38.386Z,13.50
2023-01-18T12:21:17.293Z,13.43
2023-01-18T12:24:35.594Z,15.03
2023-01-18T12:27:05.444Z,14.97
2023-01-18T12:29:42.486Z,16.20
2023-01-18T12:32:10.119Z,15.33
2023-01-18T12:35:24.072Z,16.40
2023-01-18T12:38:25.108Z,16.20
2023-01-18T12:40:58.283Z,15.73
2023-01-18T12:43:38.455Z,15.80
2023-01-18T12:46:29.254Z,14.50
2023-01-18T12:48:59.189Z,16.03
2023-01-18T12:51:27.472Z,15.10
2023-01-18T12:54:02.694Z,14.93
2023-01-18T12:56:50.691Z,15.97
2023-01-18T12:59:42.051Z,16.93
2023-01-18T13:02:40.583Z,15.23
2023-01-18T13:05:13.025Z,14.43
2023-01-18T13:07:42.288Z,15.70
2023-01-18T13:10:23.710Z,16.03
2023-01-18T13:12:51.059Z,15.07
2023-01-18T13:15:48.171Z,16.47
2023-01-18T13:18:47.445Z,15.77
2023-01-18T13:21:28.334Z,17.00
2023-01-18T13:24:02.868Z,15.63
2023-01-18T13:26:31.412Z,15.50
2023-01-18T13:29:10.387Z,19.50
2023-01-18T13:31:39.204Z,16.77
2023-01-18T13:34:08.097Z,16.90
2023-01-18T13:36:45.326Z,16.77
2023-01-18T13:39:17.272Z,15.07
2023-01-18T13:42:02.383Z,16.60
2023-01-18T13:44:37.040Z,29.67
2023-01-18T13:47:25.383Z,21.40
2023-01-18T13:49:53.633Z,48.47
2023-01-18T13:52:35.531Z,20.90
2023-01-18T13:55:23.991Z,16.90
2023-01-18T13:57:58.335Z,25.27
2023-01-18T14:00:25.517Z,16.67
2023-01-18T14:03:22.885Z,18.20
2023-01-18T14:05:50.715Z,17.60
2023-01-18T14:08:24.958Z,16.37
2023-01-18T14:10:55.581Z,15.30
2023-01-18T14:13:41.827Z,20.80
2023-01-18T14:16:26.360Z,19.90
2023-01-18T14:19:13.864Z,18.03
2023-01-18T14:22:11.115Z,17.50
2023-01-18T14:24:56.731Z,22.55
2023-01-18T14:27:25.500Z,20.13
2023-01-18T14:30:14.332Z,20.37
2023-01-18T14:32:44.950Z,20.97
2023-01-18T14:35:52.137Z,20.27
2023-01-18T14:38:19.931Z,20.20
2023-01-18T14:40:48.771Z,19.20
2023-01-18T14:43:49.874Z,19.73
2023-01-18T14:46:21.891Z,19.33
2023-01-18T14:48:53.930Z,21.03
2023-01-18T14:51:25.849Z,20.93
2023-01-18T14:54:00.714Z,23.40
2023-01-18T14:56:30.322Z,20.17
2023-01-18T14:59:03.060Z,19.07
2023-01-18T15:02:00.045Z,18.70
2023-01-18T15:04:29.148Z,17.20
2023-01-18T15:07:04.838Z,17.80
2023-01-18T15:09:33.110Z,18.50
2023-01-18T15:12:02.010Z,16.80
2023-01-18T15:14:31.425Z,18.17
2023-01-18T15:16:58.858Z,17.70
2023-01-18T15:19:42.971Z,17.60
2023-01-18T15:22:11.859Z,17.13
2023-01-18T15:24:40.443Z,17.00
2023-01-18T15:27:11.714Z,17.50
2023-01-18T15:29:39.262Z,17.67
2023-01-18T15:32:17.586Z,17.93
2023-01-18T15:34:46.218Z,20.33
2023-01-18T15:37:31.036Z,22.23
2023-01-18T15:39:58.175Z,20.70
2023-01-18T15:42:44.848Z,19.03
2023-01-18T15:45:21.628Z,18.17
2023-01-18T15:47:50.816Z,16.70
2023-01-18T15:50:32.106Z,18.17
2023-01-18T15:53:06.795Z,19.57
2023-01-18T15:55:53.447Z,18.97
2023-01-18T15:58:27.696Z,17.40
2023-01-18T16:00:57.069Z,21.20
2023-01-18T16:03:29.586Z,19.43
2023-01-18T16:06:07.906Z,17.50
2023-01-18T16:08:36.202Z,17.00
2023-01-18T16:11:06.106Z,17.93
2023-01-18T16:13:40.078Z,18.20
2023-01-18T16:16:15.384Z,18.40
2023-01-18T16:19:04.921Z,19.80
2023-01-18T16:22:06.715Z,20.00
2023-01-18T16:24:33.674Z,19.00
2023-01-18T16:27:08.082Z,19.00
2023-01-18T16:29:48.095Z,16.93
2023-01-18T16:32:29.916Z,16.73
2023-01-18T16:35:21.775Z,16.07
2023-01-18T16:37:49.815Z,18.37
2023-01-18T16:40:20.100Z,17.73
2023-01-18T16:43:02.941Z,17.17
2023-01-18T16:45:31.747Z,19.13
2023-01-18T16:47:59.541Z,19.87
2023-01-18T16:50:28.735Z,19.03
2023-01-18T16:52:56.202Z,18.17
2023-01-18T16:55:24.427Z,18.30
2023-01-18T16:57:52.536Z,17.57
2023-01-18T17:00:24.576Z,16.77
2023-01-18T17:02:53.686Z,21.70
2023-01-18T17:05:21.705Z,23.90
2023-01-18T17:07:51.803Z,22.37
2023-01-18T17:10:30.213Z,18.90
2023-01-18T17:13:00.180Z,19.13
2023-01-18T17:15:30.120Z,23.37
2023-01-18T17:17:57.969Z,53.30
2023-01-18T17:20:25.958Z,32.23
2023-01-18T17:22:54.048Z,27.43
2023-01-18T17:25:21.625Z,25.40
2023-01-18T17:27:48.856Z,24.33
2023-01-18T17:30:19.172Z,21.27
2023-01-18T17:32:47.759Z,23.63
2023-01-18T17:35:16.548Z,23.20
2023-01-18T17:37:44.681Z,25.20
2023-01-18T17:40:23.458Z,19.63
2023-01-18T17:42:51.813Z,18.20
2023-01-18T17:45:19.974Z,16.57
2023-01-18T17:47:47.610Z,16.07
2023-01-18T17:50:21.738Z,17.20
2023-01-18T17:52:49.750Z,16.77
2023-01-18T17:55:24.064Z,16.13
2023-01-18T17:57:54.311Z,16.73
2023-01-18T18:00:22.862Z,17.50
2023-01-18T18:02:57.410Z,17.47
2023-01-18T18:05:25.131Z,20.43
2023-01-18T18:07:53.112Z,20.30
2023-01-18T18:10:20.652Z,18.60
2023-01-18T18:12:48.871Z,20.10
2023-01-18T18:15:19.521Z,20.37
2023-01-18T18:17:47.663Z,19.53
2023-01-18T18:20:17.383Z,19.77
2023-01-18T18:22:45.601Z,18.83
2023-01-18T18:25:12.821Z,18.17
2023-01-18T18:27:47.907Z,19.17
2023-01-18T18:30:17.720Z,18.57
2023-01-18T18:32:45.912Z,18.50
2023-01-18T18:35:25.158Z,18.50
2023-01-18T18:37:54.344Z,18.23
2023-01-18T18:40:25.780Z,19.30
2023-01-18T18:43:02.048Z,20.13
2023-01-18T18:45:32.145Z,16.77
2023-01-18T18:48:00.632Z,17.93
2023-01-18T18:50:27.942Z,18.60
2023-01-18T18:52:55.917Z,18.83
2023-01-18T18:55:24.464Z,19.30
2023-01-18T18:57:51.902Z,19.37
2023-01-18T19:00:21.438Z,18.13
2023-01-18T19:02:48.813Z,20.03
2023-01-18T19:05:16.815Z,23.63
2023-01-18T19:07:47.154Z,18.73
2023-01-18T19:10:14.915Z,18.20
2023-01-18T19:12:43.098Z,17.83
2023-01-18T19:15:14.284Z,17.47
2023-01-18T19:17:42.275Z,18.90
2023-01-18T19:20:14.011Z,18.37
2023-01-18T19:22:41.915Z,18.97
2023-01-18T19:25:11.318Z,20.63
2023-01-18T19:27:39.348Z,18.00
2023-01-18T19:30:13.282Z,19.27
2023-01-18T19:32:41.816Z,18.33
2023-01-18T19:37:45.210Z,19.23
2023-01-18T19:40:18.255Z,18.57
2023-01-18T19:42:47.189Z,17.73
2023-01-18T19:45:27.013Z,17.73
2023-01-18T19:50:37.513Z,18.93
2023-01-18T19:53:06.250Z,20.13
2023-01-18T19:55:44.175Z,21.13
2023-01-18T19:58:13.295Z,20.40
2023-01-18T20:00:53.376Z,19.97
2023-01-18T20:03:29.842Z,21.43
2023-01-18T20:05:59.184Z,20.50
2023-01-18T20:08:34.469Z,21.67
2023-01-18T20:16:22.277Z,31.23
2023-01-18T20:18:51.404Z,21.40
2023-01-18T20:21:19.790Z,19.90
2023-01-18T20:23:48.464Z,20.30
2023-01-18T20:26:22.121Z,19.67
2023-01-18T20:28:56.085Z,20.42
2023-01-18T20:31:23.953Z,24.13
2023-01-18T20:33:52.285Z,22.67
2023-01-18T20:36:20.638Z,20.40
2023-01-18T20:38:49.303Z,20.13
2023-01-18T20:41:17.629Z,21.63
2023-01-18T20:43:46.472Z,21.80
2023-01-18T20:46:14.407Z,22.13
2023-01-18T20:48:45.942Z,21.20
2023-01-18T20:51:13.770Z,20.93
2023-01-18T20:53:41.333Z,21.37
2023-01-18T20:56:27.826Z,20.77
2023-01-18T20:58:56.791Z,20.77
2023-01-18T21:01:31.963Z,20.03
2023-01-18T21:04:03.441Z,19.30
2023-01-18T21:06:31.092Z,18.60
2023-01-18T21:08:59.842Z,18.70
2023-01-18T21:11:27.037Z,19.87
2023-01-18T21:13:59.206Z,20.67
2023-01-18T21:16:27.929Z,21.10
2023-01-18T21:18:59.297Z,20.97
2023-01-18T21:21:27.316Z,22.53
2023-01-18T21:23:55.457Z,22.17
2023-01-18T21:26:23.666Z,19.93
2023-01-18T21:28:51.709Z,20.97
2023-01-18T21:31:19.482Z,20.57
2023-01-18T21:33:47.762Z,20.23
2023-01-18T21:36:17.556Z,20.97
2023-01-18T21:38:45.354Z,21.13
2023-01-18T21:41:31.619Z,21.37
2023-01-18T21:44:18.062Z,20.83
2023-01-18T21:46:46.720Z,21.90
2023-01-18T21:49:52.198Z,20.33
2023-01-18T21:52:40.171Z,19.97
2023-01-18T21:55:09.054Z,20.83
2023-01-18T21:57:36.809Z,20.60
2023-01-18T22:00:05.626Z,21.70
2023-01-18T22:02:33.571Z,20.13
2023-01-18T22:05:03.302Z,20.90
2023-01-18T22:07:31.916Z,22.63
2023-01-18T22:10:05.062Z,21.30
2023-01-18T22:12:35.234Z,20.87
2023-01-18T22:15:07.672Z,19.80
2023-01-18T22:17:35.153Z,21.23
2023-01-18T22:20:03.174Z,21.73
2023-01-18T22:22:31.735Z,20.83
2023-01-18T22:25:02.234Z,21.33
2023-01-18T22:27:29.964Z,20.53
2023-01-18T22:30:01.147Z,21.43
2023-01-18T22:32:29.089Z,20.53
2023-01-18T22:34:57.674Z,19.30
2023-01-18T22:37:28.328Z,20.50
2023-01-18T22:39:56.570Z,20.80
2023-01-18T22:42:24.483Z,20.73
2023-01-18T22:44:52.088Z,19.10
2023-01-18T22:47:21.279Z,20.00
2023-01-18T22:49:49.090Z,19.17
2023-01-18T22:52:16.258Z,18.77
2023-01-18T22:54:44.266Z,19.57
2023-01-18T22:57:11.972Z,18.80
2023-01-18T22:59:39.942Z,19.23
2023-01-18T23:02:07.977Z,18.73
2023-01-18T23:04:35.770Z,17.53
2023-01-18T23:09:46.895Z,18.43
2023-01-18T23:12:16.273Z,18.50
2023-01-18T23:15:03.480Z,18.60
2023-01-18T23:22:48.555Z,17.97
2023-01-18T23:25:17.323Z,19.03
2023-01-18T23:27:45.809Z,18.20
2023-01-18T23:30:15.014Z,18.30
2023-01-18T23:32:42.769Z,18.30
2023-01-18T23:35:12.313Z,18.57
2023-01-18T23:37:40.781Z,18.10
2023-01-18T23:40:31.309Z,17.70
2023-01-18T23:43:17.512Z,18.13
2023-01-18T23:46:03.940Z,19.13
2023-01-18T23:48:49.801Z,18.17
2023-01-18T23:51:36.146Z,18.10
2023-01-18T23:54:12.933Z,18.57
2023-01-18T23:56:41.036Z,19.25
2023-01-18T23:59:11.547Z,18.47
